<?xml version="1.0" encoding="utf-8"?>
<gpx xmlns:xsi="http://www.w3.org/2001/XMLSchema-instance" xmlns:xsd="http://www.w3.org/2001/XMLSchema" version="1.1" creator="Shapelink.com" xmlns="http://www.topografix.com/GPX/1/1" xmlns:gpxtpx="http://www.garmin.com/xmlschemas/TrackPointExtension/v1">
  <metadata>
    <name>Ejecutar 4.10 km, 2020-01-16</name>
    <desc></desc>
    <author><name>Per Rooth</name></author> 
    <time>2020-01-16T18:18:28Z</time>
  </metadata>
  <trk>
    <name>Ejecutar 4.10 km, 2020-01-16</name>
    <trkseg>
      <trkpt lat="57.021803849444" lon="15.013463897911">
        <ele>211</ele>
        <time>2020-01-16T18:18:28Z</time>
      </trkpt>
      <trkpt lat="57.021629338286" lon="15.013575461">
        <ele>210.6</ele>
        <time>2020-01-16T18:18:34Z</time>
      </trkpt>
      <trkpt lat="57.02145549768" lon="15.013704123165">
        <ele>211</ele>
        <time>2020-01-16T18:18:39Z</time>
      </trkpt>
      <trkpt lat="57.021266150559" lon="15.013840245221">
        <ele>211</ele>
        <time>2020-01-16T18:18:45Z</time>
      </trkpt>
      <trkpt lat="57.021132459254" lon="15.013896823046">
        <ele>211.4</ele>
        <time>2020-01-16T18:18:49Z</time>
      </trkpt>
      <trkpt lat="57.020936909527" lon="15.013967817739">
        <ele>210.4</ele>
        <time>2020-01-16T18:18:55Z</time>
      </trkpt>
      <trkpt lat="57.020749574062" lon="15.01404820016">
        <ele>209.6</ele>
        <time>2020-01-16T18:19:01Z</time>
      </trkpt>
      <trkpt lat="57.020544049874" lon="15.014140484879">
        <ele>210</ele>
        <time>2020-01-16T18:19:07Z</time>
      </trkpt>
      <trkpt lat="57.020369957811" lon="15.014265626646">
        <ele>209.4</ele>
        <time>2020-01-16T18:19:12Z</time>
      </trkpt>
      <trkpt lat="57.020190249875" lon="15.014384733445">
        <ele>211</ele>
        <time>2020-01-16T18:19:18Z</time>
      </trkpt>
      <trkpt lat="57.020034681811" lon="15.014474922689">
        <ele>211</ele>
        <time>2020-01-16T18:19:23Z</time>
      </trkpt>
      <trkpt lat="57.019844412681" lon="15.014479281277">
        <ele>211.6</ele>
        <time>2020-01-16T18:19:29Z</time>
      </trkpt>
      <trkpt lat="57.019662776908" lon="15.014438377605">
        <ele>211.8</ele>
        <time>2020-01-16T18:19:35Z</time>
      </trkpt>
      <trkpt lat="57.019461778946" lon="15.014345170877">
        <ele>212.4</ele>
        <time>2020-01-16T18:19:41Z</time>
      </trkpt>
      <trkpt lat="57.019428335165" lon="15.014327820344">
        <ele>212.6</ele>
        <time>2020-01-16T18:19:42Z</time>
      </trkpt>
      <trkpt lat="57.019248208134" lon="15.014257663841">
        <ele>213.6</ele>
        <time>2020-01-16T18:19:47Z</time>
      </trkpt>
      <trkpt lat="57.019210238127" lon="15.014243330792">
        <ele>213.6</ele>
        <time>2020-01-16T18:19:48Z</time>
      </trkpt>
      <trkpt lat="57.01900798288" lon="15.014192787935">
        <ele>214.2</ele>
        <time>2020-01-16T18:19:54Z</time>
      </trkpt>
      <trkpt lat="57.018978227135" lon="15.014186333872">
        <ele>214.2</ele>
        <time>2020-01-16T18:19:55Z</time>
      </trkpt>
      <trkpt lat="57.01879759719" lon="15.014108214564">
        <ele>214.6</ele>
        <time>2020-01-16T18:20:01Z</time>
      </trkpt>
      <trkpt lat="57.018656362175" lon="15.014033531835">
        <ele>215.8</ele>
        <time>2020-01-16T18:20:06Z</time>
      </trkpt>
      <trkpt lat="57.01847740861" lon="15.013948036455">
        <ele>215.2</ele>
        <time>2020-01-16T18:20:12Z</time>
      </trkpt>
      <trkpt lat="57.018267190558" lon="15.013842256877">
        <ele>215</ele>
        <time>2020-01-16T18:20:18Z</time>
      </trkpt>
      <trkpt lat="57.018077675799" lon="15.013715187273">
        <ele>214.4</ele>
        <time>2020-01-16T18:20:24Z</time>
      </trkpt>
      <trkpt lat="57.017897716406" lon="15.013680402388">
        <ele>213.4</ele>
        <time>2020-01-16T18:20:29Z</time>
      </trkpt>
      <trkpt lat="57.017708620742" lon="15.013620136527">
        <ele>214</ele>
        <time>2020-01-16T18:20:34Z</time>
      </trkpt>
      <trkpt lat="57.017643241922" lon="15.013598595044">
        <ele>214.6</ele>
        <time>2020-01-16T18:20:36Z</time>
      </trkpt>
      <trkpt lat="57.017552633583" lon="15.013578478484">
        <ele>215.6</ele>
        <time>2020-01-16T18:20:39Z</time>
      </trkpt>
      <trkpt lat="57.017343169902" lon="15.013497760787">
        <ele>216.4</ele>
        <time>2020-01-16T18:20:45Z</time>
      </trkpt>
      <trkpt lat="57.017273935408" lon="15.013465322834">
        <ele>216.6</ele>
        <time>2020-01-16T18:20:47Z</time>
      </trkpt>
      <trkpt lat="57.017127168339" lon="15.01338100092">
        <ele>215.4</ele>
        <time>2020-01-16T18:20:51Z</time>
      </trkpt>
      <trkpt lat="57.01698459222" lon="15.013154521982">
        <ele>214.8</ele>
        <time>2020-01-16T18:20:58Z</time>
      </trkpt>
      <trkpt lat="57.016873029131" lon="15.012836428877">
        <ele>215.6</ele>
        <time>2020-01-16T18:21:05Z</time>
      </trkpt>
      <trkpt lat="57.016845955594" lon="15.012674155293">
        <ele>216.4</ele>
        <time>2020-01-16T18:21:08Z</time>
      </trkpt>
      <trkpt lat="57.016825922853" lon="15.012323875692">
        <ele>217.6</ele>
        <time>2020-01-16T18:21:14Z</time>
      </trkpt>
      <trkpt lat="57.016819887885" lon="15.012211558232">
        <ele>218</ele>
        <time>2020-01-16T18:21:16Z</time>
      </trkpt>
      <trkpt lat="57.016828102147" lon="15.011991030443">
        <ele>217.8</ele>
        <time>2020-01-16T18:21:21Z</time>
      </trkpt>
      <trkpt lat="57.016892475139" lon="15.0118739353">
        <ele>218.6</ele>
        <time>2020-01-16T18:21:26Z</time>
      </trkpt>
      <trkpt lat="57.016922230884" lon="15.011815178181">
        <ele>218.8</ele>
        <time>2020-01-16T18:21:28Z</time>
      </trkpt>
      <trkpt lat="57.017005714608" lon="15.011710069155">
        <ele>219.6</ele>
        <time>2020-01-16T18:21:34Z</time>
      </trkpt>
      <trkpt lat="57.017042846425" lon="15.011610073088">
        <ele>219.8</ele>
        <time>2020-01-16T18:21:40Z</time>
      </trkpt>
      <trkpt lat="57.017091712902" lon="15.011536815282">
        <ele>220.2</ele>
        <time>2020-01-16T18:21:46Z</time>
      </trkpt>
      <trkpt lat="57.017100765354" lon="15.011500689293">
        <ele>220.8</ele>
        <time>2020-01-16T18:21:49Z</time>
      </trkpt>
      <trkpt lat="57.017123145027" lon="15.011466994055">
        <ele>221.6</ele>
        <time>2020-01-16T18:21:52Z</time>
      </trkpt>
      <trkpt lat="57.017133203307" lon="15.011464563304">
        <ele>221.8</ele>
        <time>2020-01-16T18:21:53Z</time>
      </trkpt>
      <trkpt lat="57.017156588808" lon="15.011453666834">
        <ele>222</ele>
        <time>2020-01-16T18:21:56Z</time>
      </trkpt>
      <trkpt lat="57.017168323468" lon="15.011442854183">
        <ele>222</ele>
        <time>2020-01-16T18:21:58Z</time>
      </trkpt>
      <trkpt lat="57.017190032589" lon="15.011408907488">
        <ele>221.4</ele>
        <time>2020-01-16T18:22:01Z</time>
      </trkpt>
      <trkpt lat="57.017212244624" lon="15.011400106493">
        <ele>221.2</ele>
        <time>2020-01-16T18:22:04Z</time>
      </trkpt>
      <trkpt lat="57.017240323989" lon="15.011396669914">
        <ele>221.4</ele>
        <time>2020-01-16T18:22:06Z</time>
      </trkpt>
      <trkpt lat="57.01727712053" lon="15.011359789554">
        <ele>221.6</ele>
        <time>2020-01-16T18:22:09Z</time>
      </trkpt>
      <trkpt lat="57.017312911243" lon="15.011258033288">
        <ele>222</ele>
        <time>2020-01-16T18:22:12Z</time>
      </trkpt>
      <trkpt lat="57.017355826571" lon="15.011075391687">
        <ele>222.8</ele>
        <time>2020-01-16T18:22:18Z</time>
      </trkpt>
      <trkpt lat="57.017390527637" lon="15.010780600264">
        <ele>224</ele>
        <time>2020-01-16T18:22:26Z</time>
      </trkpt>
      <trkpt lat="57.017489014962" lon="15.010600892328">
        <ele>223.8</ele>
        <time>2020-01-16T18:22:33Z</time>
      </trkpt>
      <trkpt lat="57.017556405438" lon="15.010345579654">
        <ele>225.2</ele>
        <time>2020-01-16T18:22:41Z</time>
      </trkpt>
      <trkpt lat="57.017559925836" lon="15.010240973542">
        <ele>225.8</ele>
        <time>2020-01-16T18:22:44Z</time>
      </trkpt>
      <trkpt lat="57.017572666324" lon="15.010189676314">
        <ele>226.4</ele>
        <time>2020-01-16T18:22:46Z</time>
      </trkpt>
      <trkpt lat="57.017620443154" lon="15.009938722228">
        <ele>227.2</ele>
        <time>2020-01-16T18:22:56Z</time>
      </trkpt>
      <trkpt lat="57.017618180041" lon="15.009897986194">
        <ele>227.4</ele>
        <time>2020-01-16T18:22:58Z</time>
      </trkpt>
      <trkpt lat="57.017599069309" lon="15.009847527156">
        <ele>227.6</ele>
        <time>2020-01-16T18:23:00Z</time>
      </trkpt>
      <trkpt lat="57.017517848698" lon="15.009670249971">
        <ele>228.4</ele>
        <time>2020-01-16T18:23:06Z</time>
      </trkpt>
      <trkpt lat="57.01747325699" lon="15.009564889488">
        <ele>228.2</ele>
        <time>2020-01-16T18:23:10Z</time>
      </trkpt>
      <trkpt lat="57.017440399942" lon="15.00950772493">
        <ele>228</ele>
        <time>2020-01-16T18:23:12Z</time>
      </trkpt>
      <trkpt lat="57.017360017521" lon="15.009240090863">
        <ele>228.4</ele>
        <time>2020-01-16T18:23:19Z</time>
      </trkpt>
      <trkpt lat="57.017373009466" lon="15.009121738435">
        <ele>228</ele>
        <time>2020-01-16T18:23:22Z</time>
      </trkpt>
      <trkpt lat="57.017382564832" lon="15.008960722136">
        <ele>227.2</ele>
        <time>2020-01-16T18:23:27Z</time>
      </trkpt>
      <trkpt lat="57.017373763837" lon="15.00890087537">
        <ele>227</ele>
        <time>2020-01-16T18:23:29Z</time>
      </trkpt>
      <trkpt lat="57.017358089684" lon="15.008842285889">
        <ele>226.8</ele>
        <time>2020-01-16T18:23:31Z</time>
      </trkpt>
      <trkpt lat="57.017323053342" lon="15.00866199122">
        <ele>226.6</ele>
        <time>2020-01-16T18:23:37Z</time>
      </trkpt>
      <trkpt lat="57.017298410556" lon="15.008612621829">
        <ele>226.4</ele>
        <time>2020-01-16T18:23:40Z</time>
      </trkpt>
      <trkpt lat="57.017216519393" lon="15.008267874282">
        <ele>227</ele>
        <time>2020-01-16T18:23:50Z</time>
      </trkpt>
      <trkpt lat="57.017170586581" lon="15.008133428606">
        <ele>227.2</ele>
        <time>2020-01-16T18:23:54Z</time>
      </trkpt>
      <trkpt lat="57.017149631831" lon="15.0080936984">
        <ele>227</ele>
        <time>2020-01-16T18:23:56Z</time>
      </trkpt>
      <trkpt lat="57.017111745643" lon="15.008042065896">
        <ele>226.4</ele>
        <time>2020-01-16T18:24:03Z</time>
      </trkpt>
      <trkpt lat="57.016996075423" lon="15.007982135311">
        <ele>225.2</ele>
        <time>2020-01-16T18:24:16Z</time>
      </trkpt>
      <trkpt lat="57.01694016815" lon="15.007906865849">
        <ele>223.8</ele>
        <time>2020-01-16T18:24:20Z</time>
      </trkpt>
      <trkpt lat="57.01686137829" lon="15.007768732137">
        <ele>223.2</ele>
        <time>2020-01-16T18:24:26Z</time>
      </trkpt>
      <trkpt lat="57.016680832164" lon="15.007675609228">
        <ele>223.4</ele>
        <time>2020-01-16T18:24:36Z</time>
      </trkpt>
      <trkpt lat="57.01650347116" lon="15.007588688925">
        <ele>223.8</ele>
        <time>2020-01-16T18:24:43Z</time>
      </trkpt>
      <trkpt lat="57.016323511767" lon="15.00754133119">
        <ele>223.8</ele>
        <time>2020-01-16T18:24:51Z</time>
      </trkpt>
      <trkpt lat="57.016139948157" lon="15.007522136639">
        <ele>224</ele>
        <time>2020-01-16T18:25:00Z</time>
      </trkpt>
      <trkpt lat="57.015978680401" lon="15.007504031735">
        <ele>224.2</ele>
        <time>2020-01-16T18:25:08Z</time>
      </trkpt>
      <trkpt lat="57.015951858321" lon="15.007528423064">
        <ele>224.2</ele>
        <time>2020-01-16T18:25:10Z</time>
      </trkpt>
      <trkpt lat="57.01589410703" lon="15.007507719771">
        <ele>224.2</ele>
        <time>2020-01-16T18:25:15Z</time>
      </trkpt>
      <trkpt lat="57.015816742093" lon="15.007491207428">
        <ele>224.4</ele>
        <time>2020-01-16T18:25:22Z</time>
      </trkpt>
      <trkpt lat="57.01577759862" lon="15.007496739482">
        <ele>224.4</ele>
        <time>2020-01-16T18:25:25Z</time>
      </trkpt>
      <trkpt lat="57.015697635294" lon="15.007528255426">
        <ele>224.8</ele>
        <time>2020-01-16T18:25:31Z</time>
      </trkpt>
      <trkpt lat="57.015681458227" lon="15.007534458032">
        <ele>224.6</ele>
        <time>2020-01-16T18:25:33Z</time>
      </trkpt>
      <trkpt lat="57.015640470736" lon="15.007563543225">
        <ele>223.6</ele>
        <time>2020-01-16T18:25:37Z</time>
      </trkpt>
      <trkpt lat="57.015613900113" lon="15.007588521287">
        <ele>223</ele>
        <time>2020-01-16T18:25:40Z</time>
      </trkpt>
      <trkpt lat="57.015579115228" lon="15.007618528489">
        <ele>222.8</ele>
        <time>2020-01-16T18:25:43Z</time>
      </trkpt>
      <trkpt lat="57.015562854342" lon="15.007616433014">
        <ele>222.8</ele>
        <time>2020-01-16T18:25:44Z</time>
      </trkpt>
      <trkpt lat="57.015497894617" lon="15.007607464381">
        <ele>222.6</ele>
        <time>2020-01-16T18:25:48Z</time>
      </trkpt>
      <trkpt lat="57.015478448609" lon="15.007639734696">
        <ele>222.4</ele>
        <time>2020-01-16T18:25:50Z</time>
      </trkpt>
      <trkpt lat="57.015442406439" lon="15.007683991128">
        <ele>222.4</ele>
        <time>2020-01-16T18:25:55Z</time>
      </trkpt>
      <trkpt lat="57.015399491111" lon="15.007722883144">
        <ele>222.6</ele>
        <time>2020-01-16T18:25:59Z</time>
      </trkpt>
      <trkpt lat="57.015311229704" lon="15.007761439884">
        <ele>223</ele>
        <time>2020-01-16T18:26:07Z</time>
      </trkpt>
      <trkpt lat="57.015299662682" lon="15.007766385205">
        <ele>223</ele>
        <time>2020-01-16T18:26:08Z</time>
      </trkpt>
      <trkpt lat="57.015276612457" lon="15.007776443485">
        <ele>223</ele>
        <time>2020-01-16T18:26:11Z</time>
      </trkpt>
      <trkpt lat="57.015223219754" lon="15.007791530905">
        <ele>222.4</ele>
        <time>2020-01-16T18:26:15Z</time>
      </trkpt>
      <trkpt lat="57.015180220607" lon="15.007807624153">
        <ele>222.2</ele>
        <time>2020-01-16T18:26:18Z</time>
      </trkpt>
      <trkpt lat="57.015143843161" lon="15.007885994918">
        <ele>222.6</ele>
        <time>2020-01-16T18:26:22Z</time>
      </trkpt>
      <trkpt lat="57.015135377442" lon="15.007896304655">
        <ele>222.6</ele>
        <time>2020-01-16T18:26:24Z</time>
      </trkpt>
      <trkpt lat="57.015032363891" lon="15.007908877505">
        <ele>222.4</ele>
        <time>2020-01-16T18:26:43Z</time>
      </trkpt>
      <trkpt lat="57.014995232074" lon="15.007882725977">
        <ele>222.2</ele>
        <time>2020-01-16T18:26:48Z</time>
      </trkpt>
      <trkpt lat="57.014977294808" lon="15.007842828133">
        <ele>222.2</ele>
        <time>2020-01-16T18:26:51Z</time>
      </trkpt>
      <trkpt lat="57.014959022266" lon="15.007806283049">
        <ele>222.2</ele>
        <time>2020-01-16T18:26:53Z</time>
      </trkpt>
      <trkpt lat="57.01491426292" lon="15.007690193734">
        <ele>222.4</ele>
        <time>2020-01-16T18:26:58Z</time>
      </trkpt>
      <trkpt lat="57.01483631125" lon="15.007592712237">
        <ele>221.8</ele>
        <time>2020-01-16T18:27:03Z</time>
      </trkpt>
      <trkpt lat="57.014828264626" lon="15.007600423585">
        <ele>221.6</ele>
        <time>2020-01-16T18:27:04Z</time>
      </trkpt>
      <trkpt lat="57.014808734799" lon="15.007612912616">
        <ele>221.2</ele>
        <time>2020-01-16T18:27:07Z</time>
      </trkpt>
      <trkpt lat="57.014763807815" lon="15.007596987006">
        <ele>221.4</ele>
        <time>2020-01-16T18:27:11Z</time>
      </trkpt>
      <trkpt lat="57.014748720395" lon="15.007588856563">
        <ele>221.6</ele>
        <time>2020-01-16T18:27:13Z</time>
      </trkpt>
      <trkpt lat="57.014807980428" lon="15.007401772555">
        <ele>221.2</ele>
        <time>2020-01-16T18:27:24Z</time>
      </trkpt>
      <trkpt lat="57.014939743896" lon="15.007411495559">
        <ele>221.8</ele>
        <time>2020-01-16T18:27:32Z</time>
      </trkpt>
      <trkpt lat="57.014944940674" lon="15.007428678454">
        <ele>221.6</ele>
        <time>2020-01-16T18:27:34Z</time>
      </trkpt>
      <trkpt lat="57.014899678414" lon="15.007460362036">
        <ele>221.4</ele>
        <time>2020-01-16T18:27:39Z</time>
      </trkpt>
      <trkpt lat="57.014811417007" lon="15.007596567911">
        <ele>221.6</ele>
        <time>2020-01-16T18:27:46Z</time>
      </trkpt>
      <trkpt lat="57.01478015252" lon="15.007657923419">
        <ele>221.4</ele>
        <time>2020-01-16T18:27:49Z</time>
      </trkpt>
      <trkpt lat="57.014775626294" lon="15.007703856231">
        <ele>221.2</ele>
        <time>2020-01-16T18:27:51Z</time>
      </trkpt>
      <trkpt lat="57.014759281589" lon="15.007899908872">
        <ele>221</ele>
        <time>2020-01-16T18:28:10Z</time>
      </trkpt>
      <trkpt lat="57.01476590329" lon="15.007971741755">
        <ele>221</ele>
        <time>2020-01-16T18:28:12Z</time>
      </trkpt>
      <trkpt lat="57.014773279362" lon="15.008108115268">
        <ele>220.4</ele>
        <time>2020-01-16T18:28:16Z</time>
      </trkpt>
      <trkpt lat="57.014783421461" lon="15.008443978001">
        <ele>219.4</ele>
        <time>2020-01-16T18:28:25Z</time>
      </trkpt>
      <trkpt lat="57.014780823072" lon="15.00854296824">
        <ele>219.4</ele>
        <time>2020-01-16T18:28:28Z</time>
      </trkpt>
      <trkpt lat="57.014780236339" lon="15.008597869685">
        <ele>219</ele>
        <time>2020-01-16T18:28:30Z</time>
      </trkpt>
      <trkpt lat="57.01476757967" lon="15.008668864378">
        <ele>218.8</ele>
        <time>2020-01-16T18:28:32Z</time>
      </trkpt>
      <trkpt lat="57.014749810042" lon="15.008805237891">
        <ele>218.2</ele>
        <time>2020-01-16T18:28:35Z</time>
      </trkpt>
      <trkpt lat="57.014747630748" lon="15.008894672764">
        <ele>217.8</ele>
        <time>2020-01-16T18:28:39Z</time>
      </trkpt>
      <trkpt lat="57.014748888033" lon="15.008962147059">
        <ele>217.4</ele>
        <time>2020-01-16T18:28:42Z</time>
      </trkpt>
      <trkpt lat="57.0147483013" lon="15.008996512849">
        <ele>217.2</ele>
        <time>2020-01-16T18:28:44Z</time>
      </trkpt>
      <trkpt lat="57.014747211653" lon="15.009073123415">
        <ele>216.8</ele>
        <time>2020-01-16T18:28:48Z</time>
      </trkpt>
      <trkpt lat="57.014761041788" lon="15.009118218037">
        <ele>216.4</ele>
        <time>2020-01-16T18:28:50Z</time>
      </trkpt>
      <trkpt lat="57.014777721769" lon="15.009171275464">
        <ele>215.8</ele>
        <time>2020-01-16T18:28:52Z</time>
      </trkpt>
      <trkpt lat="57.014796832501" lon="15.009339081102">
        <ele>214.8</ele>
        <time>2020-01-16T18:28:57Z</time>
      </trkpt>
      <trkpt lat="57.014820218002" lon="15.009685085934">
        <ele>214</ele>
        <time>2020-01-16T18:29:07Z</time>
      </trkpt>
      <trkpt lat="57.014829018997" lon="15.009792877168">
        <ele>213.8</ele>
        <time>2020-01-16T18:29:09Z</time>
      </trkpt>
      <trkpt lat="57.014852572136" lon="15.009876947625">
        <ele>213.6</ele>
        <time>2020-01-16T18:29:11Z</time>
      </trkpt>
      <trkpt lat="57.014838071449" lon="15.009999658641">
        <ele>213.2</ele>
        <time>2020-01-16T18:29:15Z</time>
      </trkpt>
      <trkpt lat="57.014836562707" lon="15.01008607603">
        <ele>213</ele>
        <time>2020-01-16T18:29:17Z</time>
      </trkpt>
      <trkpt lat="57.014841591847" lon="15.010177774016">
        <ele>212.8</ele>
        <time>2020-01-16T18:29:22Z</time>
      </trkpt>
      <trkpt lat="57.014850979575" lon="15.010280703748">
        <ele>213.2</ele>
        <time>2020-01-16T18:29:27Z</time>
      </trkpt>
      <trkpt lat="57.014860702579" lon="15.010321691239">
        <ele>213.2</ele>
        <time>2020-01-16T18:29:29Z</time>
      </trkpt>
      <trkpt lat="57.014870928497" lon="15.010382879109">
        <ele>213</ele>
        <time>2020-01-16T18:29:31Z</time>
      </trkpt>
      <trkpt lat="57.014875119447" lon="15.010534172404">
        <ele>212.6</ele>
        <time>2020-01-16T18:29:34Z</time>
      </trkpt>
      <trkpt lat="57.01487486799" lon="15.01058144632">
        <ele>212.4</ele>
        <time>2020-01-16T18:29:35Z</time>
      </trkpt>
      <trkpt lat="57.014848548824" lon="15.010744641913">
        <ele>212.4</ele>
        <time>2020-01-16T18:29:39Z</time>
      </trkpt>
      <trkpt lat="57.014845196064" lon="15.010779845893">
        <ele>212.4</ele>
        <time>2020-01-16T18:29:40Z</time>
      </trkpt>
      <trkpt lat="57.014858607104" lon="15.010951507205">
        <ele>212.4</ele>
        <time>2020-01-16T18:29:44Z</time>
      </trkpt>
      <trkpt lat="57.014859193837" lon="15.01108687489">
        <ele>212.4</ele>
        <time>2020-01-16T18:29:47Z</time>
      </trkpt>
      <trkpt lat="57.014881489691" lon="15.011283765721">
        <ele>213.8</ele>
        <time>2020-01-16T18:29:53Z</time>
      </trkpt>
      <trkpt lat="57.014889368677" lon="15.011301786806">
        <ele>214.2</ele>
        <time>2020-01-16T18:29:54Z</time>
      </trkpt>
      <trkpt lat="57.01489414636" lon="15.01136431578">
        <ele>214.8</ele>
        <time>2020-01-16T18:29:57Z</time>
      </trkpt>
      <trkpt lat="57.014898085853" lon="15.011375966621">
        <ele>215.2</ele>
        <time>2020-01-16T18:29:58Z</time>
      </trkpt>
      <trkpt lat="57.014901438613" lon="15.01139868157">
        <ele>215.4</ele>
        <time>2020-01-16T18:30:00Z</time>
      </trkpt>
      <trkpt lat="57.014905797201" lon="15.011475962688">
        <ele>215.8</ele>
        <time>2020-01-16T18:30:05Z</time>
      </trkpt>
      <trkpt lat="57.014927757779" lon="15.011547795571">
        <ele>215.4</ele>
        <time>2020-01-16T18:30:10Z</time>
      </trkpt>
      <trkpt lat="57.014931361996" lon="15.011585933216">
        <ele>215.4</ele>
        <time>2020-01-16T18:30:12Z</time>
      </trkpt>
      <trkpt lat="57.01494192319" lon="15.011639996471">
        <ele>215.6</ele>
        <time>2020-01-16T18:30:15Z</time>
      </trkpt>
      <trkpt lat="57.014970170193" lon="15.011693472993">
        <ele>216</ele>
        <time>2020-01-16T18:30:18Z</time>
      </trkpt>
      <trkpt lat="57.014975366971" lon="15.011864296115">
        <ele>216.4</ele>
        <time>2020-01-16T18:30:25Z</time>
      </trkpt>
      <trkpt lat="57.014969248184" lon="15.011894722412">
        <ele>216.6</ele>
        <time>2020-01-16T18:30:27Z</time>
      </trkpt>
      <trkpt lat="57.014968661451" lon="15.011937051007">
        <ele>217.4</ele>
        <time>2020-01-16T18:30:31Z</time>
      </trkpt>
      <trkpt lat="57.014893727265" lon="15.012217425562">
        <ele>218</ele>
        <time>2020-01-16T18:30:48Z</time>
      </trkpt>
      <trkpt lat="57.014778224683" lon="15.012481036317">
        <ele>218.2</ele>
        <time>2020-01-16T18:30:56Z</time>
      </trkpt>
      <trkpt lat="57.014740673771" lon="15.012600143116">
        <ele>218.4</ele>
        <time>2020-01-16T18:30:59Z</time>
      </trkpt>
      <trkpt lat="57.014725753989" lon="15.012629228309">
        <ele>218.4</ele>
        <time>2020-01-16T18:31:00Z</time>
      </trkpt>
      <trkpt lat="57.014631373795" lon="15.012820335629">
        <ele>219.4</ele>
        <time>2020-01-16T18:31:06Z</time>
      </trkpt>
      <trkpt lat="57.014580998576" lon="15.012993840959">
        <ele>220.6</ele>
        <time>2020-01-16T18:31:11Z</time>
      </trkpt>
      <trkpt lat="57.014525845674" lon="15.013217637689">
        <ele>221</ele>
        <time>2020-01-16T18:31:16Z</time>
      </trkpt>
      <trkpt lat="57.014495670834" lon="15.013522319754">
        <ele>221.2</ele>
        <time>2020-01-16T18:31:24Z</time>
      </trkpt>
      <trkpt lat="57.014491898979" lon="15.013545956712">
        <ele>221.2</ele>
        <time>2020-01-16T18:31:26Z</time>
      </trkpt>
      <trkpt lat="57.014445882348" lon="15.013636313594">
        <ele>221</ele>
        <time>2020-01-16T18:31:41Z</time>
      </trkpt>
      <trkpt lat="57.014415707508" lon="15.013718623852">
        <ele>221.2</ele>
        <time>2020-01-16T18:31:46Z</time>
      </trkpt>
      <trkpt lat="57.014401458278" lon="15.013731531978">
        <ele>221.2</ele>
        <time>2020-01-16T18:31:48Z</time>
      </trkpt>
      <trkpt lat="57.014406990332" lon="15.013810657114">
        <ele>221.2</ele>
        <time>2020-01-16T18:31:51Z</time>
      </trkpt>
      <trkpt lat="57.014417467707" lon="15.013883747282">
        <ele>221</ele>
        <time>2020-01-16T18:31:53Z</time>
      </trkpt>
      <trkpt lat="57.014413444395" lon="15.013938564908">
        <ele>221.2</ele>
        <time>2020-01-16T18:31:55Z</time>
      </trkpt>
      <trkpt lat="57.014432471308" lon="15.014076614801">
        <ele>221.6</ele>
        <time>2020-01-16T18:31:59Z</time>
      </trkpt>
      <trkpt lat="57.014434985878" lon="15.014113411342">
        <ele>221.6</ele>
        <time>2020-01-16T18:32:00Z</time>
      </trkpt>
      <trkpt lat="57.014392657283" lon="15.014453967939">
        <ele>222</ele>
        <time>2020-01-16T18:32:09Z</time>
      </trkpt>
      <trkpt lat="57.014346473014" lon="15.014812545621">
        <ele>222.6</ele>
        <time>2020-01-16T18:32:18Z</time>
      </trkpt>
      <trkpt lat="57.014338761666" lon="15.014854287483">
        <ele>222.8</ele>
        <time>2020-01-16T18:32:19Z</time>
      </trkpt>
      <trkpt lat="57.014312945414" lon="15.014976411766">
        <ele>223.6</ele>
        <time>2020-01-16T18:32:23Z</time>
      </trkpt>
      <trkpt lat="57.014306826627" lon="15.014995773955">
        <ele>223.8</ele>
        <time>2020-01-16T18:32:24Z</time>
      </trkpt>
      <trkpt lat="57.014293918501" lon="15.015043634604">
        <ele>224</ele>
        <time>2020-01-16T18:32:26Z</time>
      </trkpt>
      <trkpt lat="57.014280423642" lon="15.015088142493">
        <ele>224</ele>
        <time>2020-01-16T18:32:28Z</time>
      </trkpt>
      <trkpt lat="57.014237592133" lon="15.015211104966">
        <ele>224.4</ele>
        <time>2020-01-16T18:32:33Z</time>
      </trkpt>
      <trkpt lat="57.01422107979" lon="15.01525351738">
        <ele>224.4</ele>
        <time>2020-01-16T18:32:34Z</time>
      </trkpt>
      <trkpt lat="57.014185708172" lon="15.015432722402">
        <ele>224.8</ele>
        <time>2020-01-16T18:32:38Z</time>
      </trkpt>
      <trkpt lat="57.014185205258" lon="15.015460215034">
        <ele>224.8</ele>
        <time>2020-01-16T18:32:39Z</time>
      </trkpt>
      <trkpt lat="57.014095183652" lon="15.015667247964">
        <ele>224.8</ele>
        <time>2020-01-16T18:32:46Z</time>
      </trkpt>
      <trkpt lat="57.014067188106" lon="15.015784343107">
        <ele>224.8</ele>
        <time>2020-01-16T18:32:50Z</time>
      </trkpt>
      <trkpt lat="57.013999378535" lon="15.015927673597">
        <ele>224.8</ele>
        <time>2020-01-16T18:32:56Z</time>
      </trkpt>
      <trkpt lat="57.013820676427" lon="15.015941336094">
        <ele>224.8</ele>
        <time>2020-01-16T18:33:03Z</time>
      </trkpt>
      <trkpt lat="57.013630407297" lon="15.015950137089">
        <ele>224.8</ele>
        <time>2020-01-16T18:33:10Z</time>
      </trkpt>
      <trkpt lat="57.013601573561" lon="15.015971678572">
        <ele>225</ele>
        <time>2020-01-16T18:33:12Z</time>
      </trkpt>
      <trkpt lat="57.013558658233" lon="15.016130347939">
        <ele>224.4</ele>
        <time>2020-01-16T18:33:17Z</time>
      </trkpt>
      <trkpt lat="57.013538457854" lon="15.01619396656">
        <ele>223.8</ele>
        <time>2020-01-16T18:33:21Z</time>
      </trkpt>
      <trkpt lat="57.013527393746" lon="15.016233193852">
        <ele>223.8</ele>
        <time>2020-01-16T18:33:23Z</time>
      </trkpt>
      <trkpt lat="57.013478694907" lon="15.016370573193">
        <ele>223.6</ele>
        <time>2020-01-16T18:33:27Z</time>
      </trkpt>
      <trkpt lat="57.013339136272" lon="15.016544916713">
        <ele>222.8</ele>
        <time>2020-01-16T18:33:34Z</time>
      </trkpt>
      <trkpt lat="57.013242744422" lon="15.016690426497">
        <ele>221.8</ele>
        <time>2020-01-16T18:33:41Z</time>
      </trkpt>
      <trkpt lat="57.013226399717" lon="15.01671196798">
        <ele>221.8</ele>
        <time>2020-01-16T18:33:43Z</time>
      </trkpt>
      <trkpt lat="57.013105616538" lon="15.016792937134">
        <ele>221.6</ele>
        <time>2020-01-16T18:33:55Z</time>
      </trkpt>
      <trkpt lat="57.012981899694" lon="15.016775083687">
        <ele>221.6</ele>
        <time>2020-01-16T18:33:59Z</time>
      </trkpt>
      <trkpt lat="57.01280789145" lon="15.016885138034">
        <ele>221.8</ele>
        <time>2020-01-16T18:34:06Z</time>
      </trkpt>
      <trkpt lat="57.012619801614" lon="15.016982954807">
        <ele>220.8</ele>
        <time>2020-01-16T18:34:14Z</time>
      </trkpt>
      <trkpt lat="57.012603037814" lon="15.016995611476">
        <ele>220.4</ele>
        <time>2020-01-16T18:34:15Z</time>
      </trkpt>
      <trkpt lat="57.012562720875" lon="15.017016733864">
        <ele>219.8</ele>
        <time>2020-01-16T18:34:19Z</time>
      </trkpt>
      <trkpt lat="57.012490971811" lon="15.017056044975">
        <ele>219.4</ele>
        <time>2020-01-16T18:34:26Z</time>
      </trkpt>
      <trkpt lat="57.012416624358" lon="15.01708412434">
        <ele>219.2</ele>
        <time>2020-01-16T18:34:31Z</time>
      </trkpt>
      <trkpt lat="57.012382342387" lon="15.017104408538">
        <ele>219.2</ele>
        <time>2020-01-16T18:34:35Z</time>
      </trkpt>
      <trkpt lat="57.01234940152" lon="15.017114885913">
        <ele>219</ele>
        <time>2020-01-16T18:34:38Z</time>
      </trkpt>
      <trkpt lat="57.012336912489" lon="15.017148497332">
        <ele>218.8</ele>
        <time>2020-01-16T18:34:40Z</time>
      </trkpt>
      <trkpt lat="57.012323249992" lon="15.017187808443">
        <ele>218.8</ele>
        <time>2020-01-16T18:34:42Z</time>
      </trkpt>
      <trkpt lat="57.012301792328" lon="15.017218150921">
        <ele>218.8</ele>
        <time>2020-01-16T18:34:44Z</time>
      </trkpt>
      <trkpt lat="57.012288884202" lon="15.017272884728">
        <ele>218.8</ele>
        <time>2020-01-16T18:34:47Z</time>
      </trkpt>
      <trkpt lat="57.012279915569" lon="15.017354608253">
        <ele>218.6</ele>
        <time>2020-01-16T18:34:51Z</time>
      </trkpt>
      <trkpt lat="57.012272958592" lon="15.017372042605">
        <ele>218.6</ele>
        <time>2020-01-16T18:34:52Z</time>
      </trkpt>
      <trkpt lat="57.01225300967" lon="15.017474888518">
        <ele>218.4</ele>
        <time>2020-01-16T18:34:56Z</time>
      </trkpt>
      <trkpt lat="57.012239011897" lon="15.017533813275">
        <ele>218.4</ele>
        <time>2020-01-16T18:34:59Z</time>
      </trkpt>
      <trkpt lat="57.012239347173" lon="15.017551499084">
        <ele>218.4</ele>
        <time>2020-01-16T18:35:00Z</time>
      </trkpt>
      <trkpt lat="57.012240269182" lon="15.017597683353">
        <ele>218.4</ele>
        <time>2020-01-16T18:35:01Z</time>
      </trkpt>
      <trkpt lat="57.012239179535" lon="15.017691476814">
        <ele>218.2</ele>
        <time>2020-01-16T18:35:05Z</time>
      </trkpt>
      <trkpt lat="57.012233312205" lon="15.017749898657">
        <ele>218.4</ele>
        <time>2020-01-16T18:35:08Z</time>
      </trkpt>
      <trkpt lat="57.012229959445" lon="15.017815445115">
        <ele>218.4</ele>
        <time>2020-01-16T18:35:12Z</time>
      </trkpt>
      <trkpt lat="57.012225097943" lon="15.017872358216">
        <ele>218.2</ele>
        <time>2020-01-16T18:35:15Z</time>
      </trkpt>
      <trkpt lat="57.01221110017" lon="15.017921979064">
        <ele>218.2</ele>
        <time>2020-01-16T18:35:19Z</time>
      </trkpt>
      <trkpt lat="57.012189642506" lon="15.01798685497">
        <ele>218.4</ele>
        <time>2020-01-16T18:35:22Z</time>
      </trkpt>
      <trkpt lat="57.012170196498" lon="15.018145524337">
        <ele>219</ele>
        <time>2020-01-16T18:35:26Z</time>
      </trkpt>
      <trkpt lat="57.012158629476" lon="15.018270247009">
        <ele>219.4</ele>
        <time>2020-01-16T18:35:29Z</time>
      </trkpt>
      <trkpt lat="57.012176902018" lon="15.018600912964">
        <ele>219.6</ele>
        <time>2020-01-16T18:35:39Z</time>
      </trkpt>
      <trkpt lat="57.012172375792" lon="15.018703172144">
        <ele>219.4</ele>
        <time>2020-01-16T18:35:44Z</time>
      </trkpt>
      <trkpt lat="57.012162652788" lon="15.018727312016">
        <ele>219</ele>
        <time>2020-01-16T18:35:46Z</time>
      </trkpt>
      <trkpt lat="57.012155360535" lon="15.018817752717">
        <ele>219</ele>
        <time>2020-01-16T18:35:49Z</time>
      </trkpt>
      <trkpt lat="57.012138848192" lon="15.018868211755">
        <ele>218.8</ele>
        <time>2020-01-16T18:35:51Z</time>
      </trkpt>
      <trkpt lat="57.012102889841" lon="15.018963933053">
        <ele>218.6</ele>
        <time>2020-01-16T18:35:56Z</time>
      </trkpt>
      <trkpt lat="57.012077744141" lon="15.019015984652">
        <ele>218.6</ele>
        <time>2020-01-16T18:36:00Z</time>
      </trkpt>
      <trkpt lat="57.01204346217" lon="15.019084548594">
        <ele>219</ele>
        <time>2020-01-16T18:36:03Z</time>
      </trkpt>
      <trkpt lat="57.011981184653" lon="15.019132325424">
        <ele>219.4</ele>
        <time>2020-01-16T18:36:06Z</time>
      </trkpt>
      <trkpt lat="57.011798375414" lon="15.019256629001">
        <ele>219</ele>
        <time>2020-01-16T18:36:13Z</time>
      </trkpt>
      <trkpt lat="57.011783958546" lon="15.019278589579">
        <ele>219</ele>
        <time>2020-01-16T18:36:14Z</time>
      </trkpt>
      <trkpt lat="57.011591258665" lon="15.019346566788">
        <ele>219</ele>
        <time>2020-01-16T18:36:22Z</time>
      </trkpt>
      <trkpt lat="57.011450778021" lon="15.019443042457">
        <ele>218.8</ele>
        <time>2020-01-16T18:36:28Z</time>
      </trkpt>
      <trkpt lat="57.011432673117" lon="15.019469110166">
        <ele>219</ele>
        <time>2020-01-16T18:36:29Z</time>
      </trkpt>
      <trkpt lat="57.011385985934" lon="15.019526442362">
        <ele>219.2</ele>
        <time>2020-01-16T18:36:32Z</time>
      </trkpt>
      <trkpt lat="57.011373580722" lon="15.019617805072">
        <ele>219</ele>
        <time>2020-01-16T18:36:36Z</time>
      </trkpt>
      <trkpt lat="57.011390009246" lon="15.019726266858">
        <ele>219</ele>
        <time>2020-01-16T18:36:40Z</time>
      </trkpt>
      <trkpt lat="57.011391601807" lon="15.019778821371">
        <ele>218.8</ele>
        <time>2020-01-16T18:36:43Z</time>
      </trkpt>
      <trkpt lat="57.011418926801" lon="15.019822323432">
        <ele>218.6</ele>
        <time>2020-01-16T18:36:47Z</time>
      </trkpt>
      <trkpt lat="57.011441893207" lon="15.01988451713">
        <ele>218.6</ele>
        <time>2020-01-16T18:36:50Z</time>
      </trkpt>
      <trkpt lat="57.011532669184" lon="15.020174782327">
        <ele>219</ele>
        <time>2020-01-16T18:37:00Z</time>
      </trkpt>
      <trkpt lat="57.011631407966" lon="15.020413917934">
        <ele>219.6</ele>
        <time>2020-01-16T18:37:08Z</time>
      </trkpt>
      <trkpt lat="57.011655883114" lon="15.020467142999">
        <ele>219.4</ele>
        <time>2020-01-16T18:37:11Z</time>
      </trkpt>
      <trkpt lat="57.011668120688" lon="15.020507962852">
        <ele>219.4</ele>
        <time>2020-01-16T18:37:13Z</time>
      </trkpt>
      <trkpt lat="57.011724866151" lon="15.020569653636">
        <ele>219.6</ele>
        <time>2020-01-16T18:37:17Z</time>
      </trkpt>
      <trkpt lat="57.01178697603" lon="15.020732094858">
        <ele>220</ele>
        <time>2020-01-16T18:37:24Z</time>
      </trkpt>
      <trkpt lat="57.011817737603" lon="15.020758916938">
        <ele>220.2</ele>
        <time>2020-01-16T18:37:26Z</time>
      </trkpt>
      <trkpt lat="57.011834417584" lon="15.020796635488">
        <ele>220.2</ele>
        <time>2020-01-16T18:37:28Z</time>
      </trkpt>
      <trkpt lat="57.011849421185" lon="15.020867043448">
        <ele>220</ele>
        <time>2020-01-16T18:37:31Z</time>
      </trkpt>
      <trkpt lat="57.011871968496" lon="15.020960920728">
        <ele>220</ele>
        <time>2020-01-16T18:37:34Z</time>
      </trkpt>
      <trkpt lat="57.011893258522" lon="15.021002075857">
        <ele>220.2</ele>
        <time>2020-01-16T18:37:36Z</time>
      </trkpt>
      <trkpt lat="57.011954111116" lon="15.021138114094">
        <ele>220.2</ele>
        <time>2020-01-16T18:37:40Z</time>
      </trkpt>
      <trkpt lat="57.01203508027" lon="15.021349840888">
        <ele>220.4</ele>
        <time>2020-01-16T18:37:46Z</time>
      </trkpt>
      <trkpt lat="57.012035750822" lon="15.021391163655">
        <ele>220.6</ele>
        <time>2020-01-16T18:37:47Z</time>
      </trkpt>
      <trkpt lat="57.012234904766" lon="15.021571206867">
        <ele>221.6</ele>
        <time>2020-01-16T18:38:05Z</time>
      </trkpt>
      <trkpt lat="57.012302295242" lon="15.021500715088">
        <ele>221.4</ele>
        <time>2020-01-16T18:38:21Z</time>
      </trkpt>
      <trkpt lat="57.012430789769" lon="15.021229309166">
        <ele>221.2</ele>
        <time>2020-01-16T18:38:32Z</time>
      </trkpt>
      <trkpt lat="57.012592225163" lon="15.02103116105">
        <ele>220.4</ele>
        <time>2020-01-16T18:38:43Z</time>
      </trkpt>
      <trkpt lat="57.012671769394" lon="15.020967877705">
        <ele>219.8</ele>
        <time>2020-01-16T18:38:48Z</time>
      </trkpt>
      <trkpt lat="57.012787271976" lon="15.020728406822">
        <ele>219.8</ele>
        <time>2020-01-16T18:38:55Z</time>
      </trkpt>
      <trkpt lat="57.012916101779" lon="15.020490863776">
        <ele>219.6</ele>
        <time>2020-01-16T18:39:01Z</time>
      </trkpt>
      <trkpt lat="57.012934709597" lon="15.020476866003">
        <ele>219.4</ele>
        <time>2020-01-16T18:39:02Z</time>
      </trkpt>
      <trkpt lat="57.013033616017" lon="15.020331104762">
        <ele>218.2</ele>
        <time>2020-01-16T18:39:08Z</time>
      </trkpt>
      <trkpt lat="57.013149956789" lon="15.020168495902">
        <ele>217.4</ele>
        <time>2020-01-16T18:39:15Z</time>
      </trkpt>
      <trkpt lat="57.013299657523" lon="15.019956014737">
        <ele>217.6</ele>
        <time>2020-01-16T18:39:28Z</time>
      </trkpt>
      <trkpt lat="57.013342237575" lon="15.019885187682">
        <ele>217.6</ele>
        <time>2020-01-16T18:39:31Z</time>
      </trkpt>
      <trkpt lat="57.013375848994" lon="15.019813773894">
        <ele>217.6</ele>
        <time>2020-01-16T18:39:35Z</time>
      </trkpt>
      <trkpt lat="57.013433935561" lon="15.01976800872">
        <ele>217.6</ele>
        <time>2020-01-16T18:39:48Z</time>
      </trkpt>
      <trkpt lat="57.013479365459" lon="15.019693996543">
        <ele>217.6</ele>
        <time>2020-01-16T18:39:51Z</time>
      </trkpt>
      <trkpt lat="57.013646249088" lon="15.01951152258">
        <ele>218.2</ele>
        <time>2020-01-16T18:39:59Z</time>
      </trkpt>
      <trkpt lat="57.013801314238" lon="15.019284876004">
        <ele>219.2</ele>
        <time>2020-01-16T18:40:07Z</time>
      </trkpt>
      <trkpt lat="57.013895275337" lon="15.019109778113">
        <ele>220.4</ele>
        <time>2020-01-16T18:40:12Z</time>
      </trkpt>
      <trkpt lat="57.01403081066" lon="15.018854130163">
        <ele>221.4</ele>
        <time>2020-01-16T18:40:21Z</time>
      </trkpt>
      <trkpt lat="57.014142038473" lon="15.018606361199">
        <ele>222.6</ele>
        <time>2020-01-16T18:40:29Z</time>
      </trkpt>
      <trkpt lat="57.014169614924" lon="15.018518518887">
        <ele>223.2</ele>
        <time>2020-01-16T18:40:31Z</time>
      </trkpt>
      <trkpt lat="57.014197107556" lon="15.018480632699">
        <ele>224</ele>
        <time>2020-01-16T18:40:33Z</time>
      </trkpt>
      <trkpt lat="57.014278160529" lon="15.018388683256">
        <ele>225.2</ele>
        <time>2020-01-16T18:40:38Z</time>
      </trkpt>
      <trkpt lat="57.014429621462" lon="15.018328920309">
        <ele>225.2</ele>
        <time>2020-01-16T18:40:47Z</time>
      </trkpt>
      <trkpt lat="57.014537580334" lon="15.018175196263">
        <ele>225.4</ele>
        <time>2020-01-16T18:40:54Z</time>
      </trkpt>
      <trkpt lat="57.01468878981" lon="15.017958691786">
        <ele>225.4</ele>
        <time>2020-01-16T18:41:00Z</time>
      </trkpt>
      <trkpt lat="57.014850476661" lon="15.017820390436">
        <ele>225</ele>
        <time>2020-01-16T18:41:07Z</time>
      </trkpt>
      <trkpt lat="57.014944773036" lon="15.017801112066">
        <ele>224.2</ele>
        <time>2020-01-16T18:41:12Z</time>
      </trkpt>
      <trkpt lat="57.015109309733" lon="15.017699858714">
        <ele>223</ele>
        <time>2020-01-16T18:41:20Z</time>
      </trkpt>
      <trkpt lat="57.015253897508" lon="15.017557366414">
        <ele>221.8</ele>
        <time>2020-01-16T18:41:28Z</time>
      </trkpt>
      <trkpt lat="57.015292118972" lon="15.01752165952">
        <ele>221.6</ele>
        <time>2020-01-16T18:41:33Z</time>
      </trkpt>
      <trkpt lat="57.015332184454" lon="15.017527023936">
        <ele>221.4</ele>
        <time>2020-01-16T18:41:36Z</time>
      </trkpt>
      <trkpt lat="57.015469228519" lon="15.017566754142">
        <ele>220.6</ele>
        <time>2020-01-16T18:41:42Z</time>
      </trkpt>
      <trkpt lat="57.015487668699" lon="15.017573208205">
        <ele>220.4</ele>
        <time>2020-01-16T18:41:43Z</time>
      </trkpt>
      <trkpt lat="57.015618761615" lon="15.017561389726">
        <ele>219.6</ele>
        <time>2020-01-16T18:41:47Z</time>
      </trkpt>
      <trkpt lat="57.015821268319" lon="15.017467680084">
        <ele>219.4</ele>
        <time>2020-01-16T18:41:53Z</time>
      </trkpt>
      <trkpt lat="57.016003323187" lon="15.017422250186">
        <ele>218.8</ele>
        <time>2020-01-16T18:41:59Z</time>
      </trkpt>
      <trkpt lat="57.016076329536" lon="15.017390734242">
        <ele>218.4</ele>
        <time>2020-01-16T18:42:02Z</time>
      </trkpt>
      <trkpt lat="57.016212703049" lon="15.017212283591">
        <ele>217.4</ele>
        <time>2020-01-16T18:42:09Z</time>
      </trkpt>
      <trkpt lat="57.016292750194" lon="15.017094601715">
        <ele>216.2</ele>
        <time>2020-01-16T18:42:14Z</time>
      </trkpt>
      <trkpt lat="57.016348573648" lon="15.017022685013">
        <ele>215</ele>
        <time>2020-01-16T18:42:17Z</time>
      </trkpt>
      <trkpt lat="57.016387968578" lon="15.016902320929">
        <ele>213.8</ele>
        <time>2020-01-16T18:42:21Z</time>
      </trkpt>
      <trkpt lat="57.016394087365" lon="15.016825039811">
        <ele>213</ele>
        <time>2020-01-16T18:42:25Z</time>
      </trkpt>
      <trkpt lat="57.016400541428" lon="15.016771228013">
        <ele>212.8</ele>
        <time>2020-01-16T18:42:27Z</time>
      </trkpt>
      <trkpt lat="57.016429794259" lon="15.016717080939">
        <ele>212.8</ele>
        <time>2020-01-16T18:42:29Z</time>
      </trkpt>
      <trkpt lat="57.016449156448" lon="15.016668298281">
        <ele>212.8</ele>
        <time>2020-01-16T18:42:31Z</time>
      </trkpt>
      <trkpt lat="57.016543033728" lon="15.016474844029">
        <ele>212</ele>
        <time>2020-01-16T18:42:40Z</time>
      </trkpt>
      <trkpt lat="57.016547727592" lon="15.016441651705">
        <ele>211.6</ele>
        <time>2020-01-16T18:42:41Z</time>
      </trkpt>
      <trkpt lat="57.016576309871" lon="15.016284323442">
        <ele>210.6</ele>
        <time>2020-01-16T18:42:45Z</time>
      </trkpt>
      <trkpt lat="57.016595169146" lon="15.016229589635">
        <ele>209.8</ele>
        <time>2020-01-16T18:42:48Z</time>
      </trkpt>
      <trkpt lat="57.016612938774" lon="15.01617133543">
        <ele>209.4</ele>
        <time>2020-01-16T18:42:52Z</time>
      </trkpt>
      <trkpt lat="57.016612519679" lon="15.016152643793">
        <ele>209.4</ele>
        <time>2020-01-16T18:42:53Z</time>
      </trkpt>
      <trkpt lat="57.016617045905" lon="15.01610930937">
        <ele>209.4</ele>
        <time>2020-01-16T18:42:55Z</time>
      </trkpt>
      <trkpt lat="57.016628529108" lon="15.016025406551">
        <ele>209.4</ele>
        <time>2020-01-16T18:42:58Z</time>
      </trkpt>
      <trkpt lat="57.016640682863" lon="15.015957429342">
        <ele>209.6</ele>
        <time>2020-01-16T18:43:03Z</time>
      </trkpt>
      <trkpt lat="57.01666943278" lon="15.015841423846">
        <ele>209.6</ele>
        <time>2020-01-16T18:43:09Z</time>
      </trkpt>
      <trkpt lat="57.01669038753" lon="15.015732878241">
        <ele>209.8</ele>
        <time>2020-01-16T18:43:13Z</time>
      </trkpt>
      <trkpt lat="57.016701535457" lon="15.015628439767">
        <ele>210.4</ele>
        <time>2020-01-16T18:43:18Z</time>
      </trkpt>
      <trkpt lat="57.016710168814" lon="15.015551493925">
        <ele>210.8</ele>
        <time>2020-01-16T18:43:20Z</time>
      </trkpt>
      <trkpt lat="57.016720059456" lon="15.015420401009">
        <ele>211.6</ele>
        <time>2020-01-16T18:43:23Z</time>
      </trkpt>
      <trkpt lat="57.016768925933" lon="15.015125525767">
        <ele>212.8</ele>
        <time>2020-01-16T18:43:29Z</time>
      </trkpt>
      <trkpt lat="57.0167767211" lon="15.014914218068">
        <ele>213.4</ele>
        <time>2020-01-16T18:43:34Z</time>
      </trkpt>
      <trkpt lat="57.016792227615" lon="15.014718416884">
        <ele>213.8</ele>
        <time>2020-01-16T18:43:39Z</time>
      </trkpt>
      <trkpt lat="57.016800609515" lon="15.014687990587">
        <ele>213.6</ele>
        <time>2020-01-16T18:43:41Z</time>
      </trkpt>
      <trkpt lat="57.01681695422" lon="15.014635436074">
        <ele>213.2</ele>
        <time>2020-01-16T18:43:44Z</time>
      </trkpt>
      <trkpt lat="57.016851906743" lon="15.014375513355">
        <ele>211.6</ele>
        <time>2020-01-16T18:43:51Z</time>
      </trkpt>
      <trkpt lat="57.016869173457" lon="15.014156159032">
        <ele>211.2</ele>
        <time>2020-01-16T18:44:00Z</time>
      </trkpt>
      <trkpt lat="57.016877220081" lon="15.014087511271">
        <ele>211.4</ele>
        <time>2020-01-16T18:44:04Z</time>
      </trkpt>
      <trkpt lat="57.016880405203" lon="15.014061946476">
        <ele>211</ele>
        <time>2020-01-16T18:44:06Z</time>
      </trkpt>
      <trkpt lat="57.016901527591" lon="15.013937475261">
        <ele>211</ele>
        <time>2020-01-16T18:44:13Z</time>
      </trkpt>
      <trkpt lat="57.016917704658" lon="15.013816105349">
        <ele>211.2</ele>
        <time>2020-01-16T18:44:16Z</time>
      </trkpt>
      <trkpt lat="57.01695441738" lon="15.013546291988">
        <ele>212</ele>
        <time>2020-01-16T18:44:24Z</time>
      </trkpt>
      <trkpt lat="57.016965984402" lon="15.013512177655">
        <ele>212.6</ele>
        <time>2020-01-16T18:44:26Z</time>
      </trkpt>
      <trkpt lat="57.017029183928" lon="15.013383347852">
        <ele>213.6</ele>
        <time>2020-01-16T18:44:35Z</time>
      </trkpt>
      <trkpt lat="57.017049216669" lon="15.013349652614">
        <ele>213.6</ele>
        <time>2020-01-16T18:44:38Z</time>
      </trkpt>
      <trkpt lat="57.017070339057" lon="15.013312353159">
        <ele>213.6</ele>
        <time>2020-01-16T18:44:41Z</time>
      </trkpt>
      <trkpt lat="57.017072266894" lon="15.013303468345">
        <ele>213.8</ele>
        <time>2020-01-16T18:44:42Z</time>
      </trkpt>
      <trkpt lat="57.017193552987" lon="15.013222834467">
        <ele>214.8</ele>
        <time>2020-01-16T18:44:55Z</time>
      </trkpt>
      <trkpt lat="57.017208137493" lon="15.013211518902">
        <ele>214.8</ele>
        <time>2020-01-16T18:44:56Z</time>
      </trkpt>
      <trkpt lat="57.017349121051" lon="15.013047485119">
        <ele>215.2</ele>
        <time>2020-01-16T18:45:05Z</time>
      </trkpt>
      <trkpt lat="57.017396646424" lon="15.012974981684">
        <ele>216</ele>
        <time>2020-01-16T18:45:08Z</time>
      </trkpt>
      <trkpt lat="57.017424558151" lon="15.012924857922">
        <ele>217.2</ele>
        <time>2020-01-16T18:45:11Z</time>
      </trkpt>
      <trkpt lat="57.017429419653" lon="15.012901304783">
        <ele>217.6</ele>
        <time>2020-01-16T18:45:13Z</time>
      </trkpt>
      <trkpt lat="57.017448278928" lon="15.01286467588">
        <ele>218</ele>
        <time>2020-01-16T18:45:16Z</time>
      </trkpt>
      <trkpt lat="57.017450206765" lon="15.012852186849">
        <ele>218.2</ele>
        <time>2020-01-16T18:45:17Z</time>
      </trkpt>
      <trkpt lat="57.017460600321" lon="15.012840452189">
        <ele>218.4</ele>
        <time>2020-01-16T18:45:18Z</time>
      </trkpt>
      <trkpt lat="57.017470239506" lon="15.012784712554">
        <ele>218.6</ele>
        <time>2020-01-16T18:45:21Z</time>
      </trkpt>
      <trkpt lat="57.017513238653" lon="15.012760237406">
        <ele>219</ele>
        <time>2020-01-16T18:45:24Z</time>
      </trkpt>
      <trkpt lat="57.017582473147" lon="15.012703072848">
        <ele>219.4</ele>
        <time>2020-01-16T18:45:28Z</time>
      </trkpt>
      <trkpt lat="57.017663190844" lon="15.012617493649">
        <ele>220.4</ele>
        <time>2020-01-16T18:45:32Z</time>
      </trkpt>
      <trkpt lat="57.017790847181" lon="15.012490591683">
        <ele>221.2</ele>
        <time>2020-01-16T18:45:40Z</time>
      </trkpt>
      <trkpt lat="57.017833511052" lon="15.012442479577">
        <ele>220.4</ele>
        <time>2020-01-16T18:45:44Z</time>
      </trkpt>
      <trkpt lat="57.017922107735" lon="15.012412304737">
        <ele>220</ele>
        <time>2020-01-16T18:45:51Z</time>
      </trkpt>
      <trkpt lat="57.018053200651" lon="15.012149280715">
        <ele>220.8</ele>
        <time>2020-01-16T18:46:08Z</time>
      </trkpt>
      <trkpt lat="57.018086392975" lon="15.012115250201">
        <ele>221.4</ele>
        <time>2020-01-16T18:46:13Z</time>
      </trkpt>
      <trkpt lat="57.018228047085" lon="15.012043920232">
        <ele>222.8</ele>
        <time>2020-01-16T18:46:22Z</time>
      </trkpt>
      <trkpt lat="57.018235674614" lon="15.012032939943">
        <ele>223.2</ele>
        <time>2020-01-16T18:46:23Z</time>
      </trkpt>
      <trkpt lat="57.0182519355" lon="15.012016176143">
        <ele>224</ele>
        <time>2020-01-16T18:46:25Z</time>
      </trkpt>
      <trkpt lat="57.018260401219" lon="15.012005195854">
        <ele>224</ele>
        <time>2020-01-16T18:46:26Z</time>
      </trkpt>
      <trkpt lat="57.01830725604" lon="15.011932357143">
        <ele>224.8</ele>
        <time>2020-01-16T18:46:30Z</time>
      </trkpt>
      <trkpt lat="57.018332988473" lon="15.011889944729">
        <ele>225</ele>
        <time>2020-01-16T18:46:32Z</time>
      </trkpt>
      <trkpt lat="57.018368527729" lon="15.011844095736">
        <ele>225.8</ele>
        <time>2020-01-16T18:46:35Z</time>
      </trkpt>
      <trkpt lat="57.018377161086" lon="15.011772933405">
        <ele>226.2</ele>
        <time>2020-01-16T18:46:37Z</time>
      </trkpt>
      <trkpt lat="57.018380262389" lon="15.011647037267">
        <ele>226.4</ele>
        <time>2020-01-16T18:46:40Z</time>
      </trkpt>
      <trkpt lat="57.01838772228" lon="15.011463389838">
        <ele>227.2</ele>
        <time>2020-01-16T18:46:45Z</time>
      </trkpt>
      <trkpt lat="57.018398199655" lon="15.011338080433">
        <ele>227</ele>
        <time>2020-01-16T18:46:50Z</time>
      </trkpt>
      <trkpt lat="57.018389733936" lon="15.011305977756">
        <ele>227</ele>
        <time>2020-01-16T18:46:52Z</time>
      </trkpt>
      <trkpt lat="57.018399708397" lon="15.011261972781">
        <ele>227</ele>
        <time>2020-01-16T18:46:56Z</time>
      </trkpt>
      <trkpt lat="57.018402725881" lon="15.011125096354">
        <ele>227.2</ele>
        <time>2020-01-16T18:47:04Z</time>
      </trkpt>
      <trkpt lat="57.018404737537" lon="15.011049575435">
        <ele>227</ele>
        <time>2020-01-16T18:47:06Z</time>
      </trkpt>
      <trkpt lat="57.018424770278" lon="15.010941281287">
        <ele>227</ele>
        <time>2020-01-16T18:47:09Z</time>
      </trkpt>
      <trkpt lat="57.018425859925" lon="15.010820665746">
        <ele>227.4</ele>
        <time>2020-01-16T18:47:12Z</time>
      </trkpt>
      <trkpt lat="57.018472714746" lon="15.010700385481">
        <ele>228.4</ele>
        <time>2020-01-16T18:47:15Z</time>
      </trkpt>
      <trkpt lat="57.018492579849" lon="15.010587900383">
        <ele>229.4</ele>
        <time>2020-01-16T18:47:18Z</time>
      </trkpt>
      <trkpt lat="57.018620403824" lon="15.010342059256">
        <ele>229.2</ele>
        <time>2020-01-16T18:47:27Z</time>
      </trkpt>
      <trkpt lat="57.018721070443" lon="15.010160591121">
        <ele>229.6</ele>
        <time>2020-01-16T18:47:35Z</time>
      </trkpt>
      <trkpt lat="57.018769014911" lon="15.010068976954">
        <ele>230</ele>
        <time>2020-01-16T18:47:39Z</time>
      </trkpt>
      <trkpt lat="57.01878167158" lon="15.01001902083">
        <ele>230.6</ele>
        <time>2020-01-16T18:47:41Z</time>
      </trkpt>
      <trkpt lat="57.018797513371" lon="15.009965628127">
        <ele>231</ele>
        <time>2020-01-16T18:47:43Z</time>
      </trkpt>
      <trkpt lat="57.018779827562" lon="15.00986898482">
        <ele>231.4</ele>
        <time>2020-01-16T18:47:46Z</time>
      </trkpt>
      <trkpt lat="57.018781923037" lon="15.009831601546">
        <ele>231.6</ele>
        <time>2020-01-16T18:47:48Z</time>
      </trkpt>
      <trkpt lat="57.018784018512" lon="15.009815424479">
        <ele>231.6</ele>
        <time>2020-01-16T18:47:49Z</time>
      </trkpt>
      <trkpt lat="57.018804135072" lon="15.009734622963">
        <ele>231.6</ele>
        <time>2020-01-16T18:47:53Z</time>
      </trkpt>
      <trkpt lat="57.018824167813" lon="15.009689360703">
        <ele>231.8</ele>
        <time>2020-01-16T18:47:55Z</time>
      </trkpt>
      <trkpt lat="57.018879991267" lon="15.009605709341">
        <ele>233</ele>
        <time>2020-01-16T18:47:59Z</time>
      </trkpt>
      <trkpt lat="57.018915279066" lon="15.009564386574">
        <ele>234.2</ele>
        <time>2020-01-16T18:48:02Z</time>
      </trkpt>
      <trkpt lat="57.018999936256" lon="15.00941887679">
        <ele>234.2</ele>
        <time>2020-01-16T18:48:13Z</time>
      </trkpt>
      <trkpt lat="57.019042767765" lon="15.009337739998">
        <ele>233.4</ele>
        <time>2020-01-16T18:48:17Z</time>
      </trkpt>
      <trkpt lat="57.019059699203" lon="15.009313181031">
        <ele>233.2</ele>
        <time>2020-01-16T18:48:18Z</time>
      </trkpt>
      <trkpt lat="57.019087191835" lon="15.009261716165">
        <ele>232</ele>
        <time>2020-01-16T18:48:20Z</time>
      </trkpt>
      <trkpt lat="57.019118959236" lon="15.00920094739">
        <ele>231</ele>
        <time>2020-01-16T18:48:22Z</time>
      </trkpt>
      <trkpt lat="57.019144524031" lon="15.009059544737">
        <ele>229.6</ele>
        <time>2020-01-16T18:48:25Z</time>
      </trkpt>
      <trkpt lat="57.019167071342" lon="15.008932475133">
        <ele>228.4</ele>
        <time>2020-01-16T18:48:28Z</time>
      </trkpt>
      <trkpt lat="57.019188445187" lon="15.008874807661">
        <ele>227.8</ele>
        <time>2020-01-16T18:48:30Z</time>
      </trkpt>
      <trkpt lat="57.01921417762" lon="15.008839603681">
        <ele>227.4</ele>
        <time>2020-01-16T18:48:32Z</time>
      </trkpt>
      <trkpt lat="57.019225493185" lon="15.008809764117">
        <ele>227.2</ele>
        <time>2020-01-16T18:48:33Z</time>
      </trkpt>
      <trkpt lat="57.019298499534" lon="15.008650675655">
        <ele>226.2</ele>
        <time>2020-01-16T18:48:39Z</time>
      </trkpt>
      <trkpt lat="57.019381061249" lon="15.008462082905">
        <ele>225.2</ele>
        <time>2020-01-16T18:48:46Z</time>
      </trkpt>
      <trkpt lat="57.019409392071" lon="15.008418329387">
        <ele>225</ele>
        <time>2020-01-16T18:48:48Z</time>
      </trkpt>
      <trkpt lat="57.019449625191" lon="15.008329481247">
        <ele>224.8</ele>
        <time>2020-01-16T18:48:53Z</time>
      </trkpt>
      <trkpt lat="57.019478291289" lon="15.008263431875">
        <ele>224.4</ele>
        <time>2020-01-16T18:48:57Z</time>
      </trkpt>
      <trkpt lat="57.019486002637" lon="15.008233592311">
        <ele>224.6</ele>
        <time>2020-01-16T18:48:59Z</time>
      </trkpt>
      <trkpt lat="57.019504778093" lon="15.008172655898">
        <ele>224.6</ele>
        <time>2020-01-16T18:49:02Z</time>
      </trkpt>
      <trkpt lat="57.019533108915" lon="15.008136697547">
        <ele>224.4</ele>
        <time>2020-01-16T18:49:05Z</time>
      </trkpt>
      <trkpt lat="57.019557751701" lon="15.008082885749">
        <ele>224</ele>
        <time>2020-01-16T18:49:08Z</time>
      </trkpt>
      <trkpt lat="57.019581053383" lon="15.00799730655">
        <ele>223.8</ele>
        <time>2020-01-16T18:49:12Z</time>
      </trkpt>
      <trkpt lat="57.019601086124" lon="15.007949194444">
        <ele>223.6</ele>
        <time>2020-01-16T18:49:15Z</time>
      </trkpt>
      <trkpt lat="57.019618771933" lon="15.007909045143">
        <ele>223.6</ele>
        <time>2020-01-16T18:49:17Z</time>
      </trkpt>
      <trkpt lat="57.019636290104" lon="15.007908626048">
        <ele>223.6</ele>
        <time>2020-01-16T18:49:19Z</time>
      </trkpt>
      <trkpt lat="57.019633775534" lon="15.007898148673">
        <ele>223.8</ele>
        <time>2020-01-16T18:49:21Z</time>
      </trkpt>
      <trkpt lat="57.019655652293" lon="15.007884234719">
        <ele>223.8</ele>
        <time>2020-01-16T18:49:24Z</time>
      </trkpt>
      <trkpt lat="57.019718013629" lon="15.007874176439">
        <ele>223.2</ele>
        <time>2020-01-16T18:49:28Z</time>
      </trkpt>
      <trkpt lat="57.0197942051" lon="15.007822711573">
        <ele>223.6</ele>
        <time>2020-01-16T18:49:34Z</time>
      </trkpt>
      <trkpt lat="57.019870312752" lon="15.007775772933">
        <ele>223.4</ele>
        <time>2020-01-16T18:49:41Z</time>
      </trkpt>
      <trkpt lat="57.019901074325" lon="15.007737300012">
        <ele>223.4</ele>
        <time>2020-01-16T18:49:43Z</time>
      </trkpt>
      <trkpt lat="57.019987659352" lon="15.007688349716">
        <ele>223.8</ele>
        <time>2020-01-16T18:49:48Z</time>
      </trkpt>
      <trkpt lat="57.020072232723" lon="15.007580893758">
        <ele>224</ele>
        <time>2020-01-16T18:49:51Z</time>
      </trkpt>
      <trkpt lat="57.020138533552" lon="15.007470001221">
        <ele>224</ele>
        <time>2020-01-16T18:49:56Z</time>
      </trkpt>
      <trkpt lat="57.02016719965" lon="15.007467821927">
        <ele>223.8</ele>
        <time>2020-01-16T18:49:58Z</time>
      </trkpt>
      <trkpt lat="57.020220927629" lon="15.007457176914">
        <ele>223.2</ele>
        <time>2020-01-16T18:50:04Z</time>
      </trkpt>
      <trkpt lat="57.02023928399" lon="15.007446364263">
        <ele>223.2</ele>
        <time>2020-01-16T18:50:06Z</time>
      </trkpt>
      <trkpt lat="57.020271386667" lon="15.007395150854">
        <ele>223</ele>
        <time>2020-01-16T18:50:09Z</time>
      </trkpt>
      <trkpt lat="57.020292592874" lon="15.007351481155">
        <ele>223</ele>
        <time>2020-01-16T18:50:13Z</time>
      </trkpt>
      <trkpt lat="57.020323354447" lon="15.007445693711">
        <ele>222.4</ele>
        <time>2020-01-16T18:50:26Z</time>
      </trkpt>
      <trkpt lat="57.020402898678" lon="15.007575529342">
        <ele>221.8</ele>
        <time>2020-01-16T18:50:33Z</time>
      </trkpt>
      <trkpt lat="57.020416644994" lon="15.007625317828">
        <ele>221.6</ele>
        <time>2020-01-16T18:50:35Z</time>
      </trkpt>
      <trkpt lat="57.020446652196" lon="15.007692959761">
        <ele>221.6</ele>
        <time>2020-01-16T18:50:38Z</time>
      </trkpt>
      <trkpt lat="57.020471881715" lon="15.007758925314">
        <ele>221.6</ele>
        <time>2020-01-16T18:50:41Z</time>
      </trkpt>
      <trkpt lat="57.02051169574" lon="15.007889682954">
        <ele>221.4</ele>
        <time>2020-01-16T18:50:46Z</time>
      </trkpt>
      <trkpt lat="57.020582858071" lon="15.008198555969">
        <ele>222</ele>
        <time>2020-01-16T18:50:54Z</time>
      </trkpt>
      <trkpt lat="57.020606746486" lon="15.008301904796">
        <ele>223</ele>
        <time>2020-01-16T18:50:57Z</time>
      </trkpt>
      <trkpt lat="57.020631473091" lon="15.008474488117">
        <ele>224</ele>
        <time>2020-01-16T18:51:01Z</time>
      </trkpt>
      <trkpt lat="57.020636250774" lon="15.00853961548">
        <ele>224.4</ele>
        <time>2020-01-16T18:51:03Z</time>
      </trkpt>
      <trkpt lat="57.020630634901" lon="15.008659309012">
        <ele>224.6</ele>
        <time>2020-01-16T18:51:07Z</time>
      </trkpt>
      <trkpt lat="57.02063993881" lon="15.008725274565">
        <ele>224.4</ele>
        <time>2020-01-16T18:51:10Z</time>
      </trkpt>
      <trkpt lat="57.020645135588" lon="15.008771542653">
        <ele>224.4</ele>
        <time>2020-01-16T18:51:12Z</time>
      </trkpt>
      <trkpt lat="57.020672125306" lon="15.008813619791">
        <ele>224.2</ele>
        <time>2020-01-16T18:51:14Z</time>
      </trkpt>
      <trkpt lat="57.020677908817" lon="15.008853014721">
        <ele>224.2</ele>
        <time>2020-01-16T18:51:16Z</time>
      </trkpt>
      <trkpt lat="57.020694924074" lon="15.008918142084">
        <ele>223.8</ele>
        <time>2020-01-16T18:51:19Z</time>
      </trkpt>
      <trkpt lat="57.020701629594" lon="15.00896876876">
        <ele>223.8</ele>
        <time>2020-01-16T18:51:21Z</time>
      </trkpt>
      <trkpt lat="57.020792321752" lon="15.009159456985">
        <ele>223.8</ele>
        <time>2020-01-16T18:51:31Z</time>
      </trkpt>
      <trkpt lat="57.020833728338" lon="15.009234139714">
        <ele>223.4</ele>
        <time>2020-01-16T18:51:35Z</time>
      </trkpt>
      <trkpt lat="57.020871698345" lon="15.009261380889">
        <ele>223.2</ele>
        <time>2020-01-16T18:51:37Z</time>
      </trkpt>
      <trkpt lat="57.02087882296" lon="15.00928728096">
        <ele>223</ele>
        <time>2020-01-16T18:51:38Z</time>
      </trkpt>
      <trkpt lat="57.020916290053" lon="15.009370345589">
        <ele>222.8</ele>
        <time>2020-01-16T18:51:42Z</time>
      </trkpt>
      <trkpt lat="57.020996253379" lon="15.009421558998">
        <ele>222</ele>
        <time>2020-01-16T18:51:47Z</time>
      </trkpt>
      <trkpt lat="57.020998935587" lon="15.009434634762">
        <ele>221.8</ele>
        <time>2020-01-16T18:51:48Z</time>
      </trkpt>
      <trkpt lat="57.021002372166" lon="15.009447291431">
        <ele>221.6</ele>
        <time>2020-01-16T18:51:49Z</time>
      </trkpt>
      <trkpt lat="57.021021650536" lon="15.009518872857">
        <ele>221.6</ele>
        <time>2020-01-16T18:51:54Z</time>
      </trkpt>
      <trkpt lat="57.0210347263" lon="15.009583832582">
        <ele>221.8</ele>
        <time>2020-01-16T18:51:58Z</time>
      </trkpt>
      <trkpt lat="57.021043359657" lon="15.009621299675">
        <ele>222</ele>
        <time>2020-01-16T18:52:01Z</time>
      </trkpt>
      <trkpt lat="57.021078647456" lon="15.009736634619">
        <ele>222.4</ele>
        <time>2020-01-16T18:52:05Z</time>
      </trkpt>
      <trkpt lat="57.021118377662" lon="15.009820788895">
        <ele>223</ele>
        <time>2020-01-16T18:52:08Z</time>
      </trkpt>
      <trkpt lat="57.021177553876" lon="15.009904524076">
        <ele>223.8</ele>
        <time>2020-01-16T18:52:12Z</time>
      </trkpt>
      <trkpt lat="57.021256511374" lon="15.009986834334">
        <ele>223.2</ele>
        <time>2020-01-16T18:52:18Z</time>
      </trkpt>
      <trkpt lat="57.021385341177" lon="15.010271902753">
        <ele>222.8</ele>
        <time>2020-01-16T18:52:27Z</time>
      </trkpt>
      <trkpt lat="57.021535880101" lon="15.010518414432">
        <ele>222.4</ele>
        <time>2020-01-16T18:52:33Z</time>
      </trkpt>
      <trkpt lat="57.021562031629" lon="15.010568622013">
        <ele>222</ele>
        <time>2020-01-16T18:52:35Z</time>
      </trkpt>
      <trkpt lat="57.021604611681" lon="15.010786635232">
        <ele>220.8</ele>
        <time>2020-01-16T18:52:43Z</time>
      </trkpt>
      <trkpt lat="57.021634786521" lon="15.010988052289">
        <ele>219.8</ele>
        <time>2020-01-16T18:52:48Z</time>
      </trkpt>
      <trkpt lat="57.021679210591" lon="15.011307821774">
        <ele>220.2</ele>
        <time>2020-01-16T18:52:56Z</time>
      </trkpt>
      <trkpt lat="57.021676193107" lon="15.011341097917">
        <ele>220</ele>
        <time>2020-01-16T18:52:58Z</time>
      </trkpt>
      <trkpt lat="57.02166169242" lon="15.011368842006">
        <ele>219.6</ele>
        <time>2020-01-16T18:53:00Z</time>
      </trkpt>
      <trkpt lat="57.021653729615" lon="15.011409075126">
        <ele>219.2</ele>
        <time>2020-01-16T18:53:02Z</time>
      </trkpt>
      <trkpt lat="57.021646521181" lon="15.011445871667">
        <ele>219</ele>
        <time>2020-01-16T18:53:04Z</time>
      </trkpt>
      <trkpt lat="57.021618022721" lon="15.011599428075">
        <ele>219</ele>
        <time>2020-01-16T18:53:08Z</time>
      </trkpt>
      <trkpt lat="57.021591535917" lon="15.011930429306">
        <ele>218.8</ele>
        <time>2020-01-16T18:53:17Z</time>
      </trkpt>
      <trkpt lat="57.021599414903" lon="15.011983319095">
        <ele>218.2</ele>
        <time>2020-01-16T18:53:19Z</time>
      </trkpt>
      <trkpt lat="57.021590278632" lon="15.01207007176">
        <ele>217.6</ele>
        <time>2020-01-16T18:53:22Z</time>
      </trkpt>
      <trkpt lat="57.021575442669" lon="15.012154561312">
        <ele>216.8</ele>
        <time>2020-01-16T18:53:27Z</time>
      </trkpt>
      <trkpt lat="57.021546944209" lon="15.012286911513">
        <ele>217.2</ele>
        <time>2020-01-16T18:53:32Z</time>
      </trkpt>
      <trkpt lat="57.02153931668" lon="15.012326976995">
        <ele>217.6</ele>
        <time>2020-01-16T18:53:33Z</time>
      </trkpt>
      <trkpt lat="57.021500424664" lon="15.012548091517">
        <ele>217.8</ele>
        <time>2020-01-16T18:53:38Z</time>
      </trkpt>
      <trkpt lat="57.021481733027" lon="15.012619672943">
        <ele>217</ele>
        <time>2020-01-16T18:53:41Z</time>
      </trkpt>
      <trkpt lat="57.021473770222" lon="15.012731152213">
        <ele>216.8</ele>
        <time>2020-01-16T18:53:45Z</time>
      </trkpt>
      <trkpt lat="57.021443427744" lon="15.012830561547">
        <ele>216.6</ele>
        <time>2020-01-16T18:53:48Z</time>
      </trkpt>
      <trkpt lat="57.021442002821" lon="15.012852019211">
        <ele>216.2</ele>
        <time>2020-01-16T18:53:49Z</time>
      </trkpt>
      <trkpt lat="57.02145549768" lon="15.01292586375">
        <ele>215.4</ele>
        <time>2020-01-16T18:53:51Z</time>
      </trkpt>
      <trkpt lat="57.021465639779" lon="15.012984201774">
        <ele>215</ele>
        <time>2020-01-16T18:53:53Z</time>
      </trkpt>
      <trkpt lat="57.021488354728" lon="15.013062991634">
        <ele>214.2</ele>
        <time>2020-01-16T18:53:55Z</time>
      </trkpt>
      <trkpt lat="57.021465136865" lon="15.013147565005">
        <ele>213</ele>
        <time>2020-01-16T18:53:57Z</time>
      </trkpt>
      <trkpt lat="57.02143957207" lon="15.013230042901">
        <ele>212.2</ele>
        <time>2020-01-16T18:54:00Z</time>
      </trkpt>
      <trkpt lat="57.0214705851" lon="15.013291146952">
        <ele>212.4</ele>
        <time>2020-01-16T18:54:05Z</time>
      </trkpt>
      <trkpt lat="57.021497993913" lon="15.013321992344">
        <ele>212.2</ele>
        <time>2020-01-16T18:54:07Z</time>
      </trkpt>
      <trkpt lat="57.021513500428" lon="15.013331966805">
        <ele>212</ele>
        <time>2020-01-16T18:54:08Z</time>
      </trkpt>
      <trkpt lat="57.021545854562" lon="15.013339845791">
        <ele>210.8</ele>
        <time>2020-01-16T18:54:11Z</time>
      </trkpt>
      <trkpt lat="57.021554655557" lon="15.013358537428">
        <ele>210.4</ele>
        <time>2020-01-16T18:54:12Z</time>
      </trkpt>
      <trkpt lat="57.021571838452" lon="15.013383934585">
        <ele>209.8</ele>
        <time>2020-01-16T18:54:14Z</time>
      </trkpt>
      <trkpt lat="57.021576448497" lon="15.013395920702">
        <ele>209.4</ele>
        <time>2020-01-16T18:54:15Z</time>
      </trkpt>
      <trkpt lat="57.021627410449" lon="15.013401704213">
        <ele>208.8</ele>
        <time>2020-01-16T18:54:19Z</time>
      </trkpt>
      <trkpt lat="57.021662865886" lon="15.01340111748">
        <ele>208.8</ele>
        <time>2020-01-16T18:54:20Z</time>
      </trkpt>
      <trkpt lat="57.021795886639" lon="15.013315035367">
        <ele>208.6</ele>
        <time>2020-01-16T18:54:25Z</time>
      </trkpt>
    </trkseg>
  </trk>
</gpx>